Time;durP1;ratioP1;P1;durP2;ratioP2;P2;SDS_P1;SDS_P2;PMS_P1;PMS_P2;Temp;Humidity;BMP_temperature;BMP_pressure;BME280_temperature;BME280_humidity;BME280_pressure;Samples;Min_cycle;Max_cycle;Signal;HPM_P1;HPM_P2
2022/03/15 00:00:01;;;;;;;68.05;28.58;;;;;;;2.00;46.16;102199.72;5046124;28;20032;-68
2022/03/15 00:02:26;;;;;;;56.33;28.88;;;;;;;1.95;46.34;102194.53;5045584;28;20858;-68
2022/03/15 00:04:53;;;;;;;64.28;29.38;;;;;;;1.92;46.19;102199.88;5046791;28;20028;-66
2022/03/15 00:07:19;;;;;;;69.90;30.23;;;;;;;1.88;46.06;102206.16;5046857;28;20029;-67
2022/03/15 00:09:45;;;;;;;61.85;28.95;;;;;;;1.78;46.27;102199.28;5046658;28;20612;-68
2022/03/15 00:12:11;;;;;;;66.35;30.13;;;;;;;1.78;46.17;102198.44;5046897;28;20037;-68
2022/03/15 00:14:37;;;;;;;66.93;28.33;;;;;;;1.74;46.61;102186.19;5045073;28;20021;-68
2022/03/15 00:17:05;;;;;;;64.70;30.35;;;;;;;1.70;46.66;102187.16;5047279;28;20565;-68
2022/03/15 00:19:32;;;;;;;68.15;30.10;;;;;;;1.67;46.65;102189.84;5046771;28;20040;-68
2022/03/15 00:21:57;;;;;;;70.57;30.75;;;;;;;1.60;46.57;102181.19;5045615;28;20053;-69
2022/03/15 00:24:23;;;;;;;68.00;30.55;;;;;;;1.61;46.95;102190.00;5046520;28;20084;-69
2022/03/15 00:26:48;;;;;;;69.10;30.10;;;;;;;1.55;47.27;102185.69;5046580;28;20477;-67
2022/03/15 00:29:17;;;;;;;80.78;29.33;;;;;;;1.53;47.49;102179.59;5046759;28;20458;-68
2022/03/15 00:31:44;;;;;;;62.15;29.10;;;;;;;1.50;47.80;102179.66;5046461;28;20484;-68
2022/03/15 00:34:10;;;;;;;67.75;27.90;;;;;;;1.52;47.57;102184.91;5045366;28;20044;-68
2022/03/15 00:36:37;;;;;;;53.03;26.88;;;;;;;1.49;47.72;102182.34;5046802;28;20029;-68
2022/03/15 00:39:04;;;;;;;57.38;25.65;;;;;;;1.44;48.07;102173.59;5046919;28;20044;-67
2022/03/15 00:41:29;;;;;;;54.40;26.10;;;;;;;1.48;48.17;102183.25;5050128;28;20040;-68
2022/03/15 00:43:55;;;;;;;58.97;26.08;;;;;;;1.45;48.53;102170.94;5050319;28;20378;-68
2022/03/15 00:46:21;;;;;;;51.35;25.33;;;;;;;1.43;49.28;102159.53;5050213;28;20416;-68
2022/03/15 00:48:46;;;;;;;51.58;25.75;;;;;;;1.45;49.58;102152.44;5049802;28;20032;-67
2022/03/15 00:51:12;;;;;;;45.90;21.83;;;;;;;1.53;49.97;102161.09;5050189;28;20056;-68
2022/03/15 00:53:37;;;;;;;45.08;21.25;;;;;;;1.56;50.19;102155.72;5049807;28;20028;-68
2022/03/15 00:56:03;;;;;;;42.15;20.17;;;;;;;1.53;50.18;102149.63;5049016;28;20036;-68
2022/03/15 00:58:28;;;;;;;37.15;20.00;;;;;;;1.66;49.69;102154.63;5048812;28;20055;-69
2022/03/15 01:00:54;;;;;;;32.75;19.17;;;;;;;1.76;49.30;102160.56;5048233;28;20032;-68
2022/03/15 01:03:19;;;;;;;37.60;17.77;;;;;;;1.85;48.62;102158.59;5049826;28;20037;-68
2022/03/15 01:05:45;;;;;;;34.38;18.38;;;;;;;1.92;48.76;102154.91;5049883;28;20436;-68
2022/03/15 01:08:10;;;;;;;34.72;18.17;;;;;;;1.96;48.53;102148.63;5049783;28;20021;-68
2022/03/15 01:10:36;;;;;;;37.83;18.65;;;;;;;2.03;48.16;102147.56;5049673;28;20090;-68
2022/03/15 01:13:01;;;;;;;31.63;17.08;;;;;;;2.08;48.22;102151.00;5049946;28;20116;-68
2022/03/15 01:15:29;;;;;;;36.13;17.05;;;;;;;2.15;47.82;102149.06;5049657;28;20472;-69
2022/03/15 01:17:54;;;;;;;29.77;16.45;;;;;;;2.24;47.86;102154.13;5049368;28;20021;-67
2022/03/15 01:20:20;;;;;;;31.50;17.08;;;;;;;2.28;47.57;102154.03;5049455;28;20028;-68
2022/03/15 01:22:45;;;;;;;29.63;16.75;;;;;;;2.33;47.31;102154.75;5049098;28;20041;-68
2022/03/15 01:25:11;;;;;;;38.33;17.10;;;;;;;2.36;47.11;102153.84;5049480;28;20729;-67
2022/03/15 01:27:36;;;;;;;31.95;17.25;;;;;;;2.41;46.88;102151.06;5049321;28;20040;-67
2022/03/15 01:30:03;;;;;;;28.75;16.38;;;;;;;2.47;46.88;102153.53;5049651;28;20033;-68
2022/03/15 01:32:28;;;;;;;31.75;16.58;;;;;;;2.44;46.73;102135.97;5049578;28;20754;-68
2022/03/15 01:34:54;;;;;;;33.92;16.02;;;;;;;2.48;46.52;102139.41;5049160;28;20112;-68
2022/03/15 01:37:19;;;;;;;27.88;15.38;;;;;;;2.48;46.19;102136.75;5049247;28;20027;-68
2022/03/15 01:39:45;;;;;;;31.33;16.60;;;;;;;2.55;46.08;102139.22;5049003;28;20029;-67
2022/03/15 01:42:11;;;;;;;31.58;16.20;;;;;;;2.56;46.37;102134.78;5049461;28;20027;-68
2022/03/15 01:44:37;;;;;;;28.42;16.50;;;;;;;2.60;46.00;102134.66;5049279;28;20032;-68
2022/03/15 01:47:03;;;;;;;33.40;17.27;;;;;;;2.63;46.13;102128.41;5049296;28;20112;-68
2022/03/15 01:49:29;;;;;;;31.42;16.35;;;;;;;2.63;46.04;102125.75;5049444;28;20159;-68
2022/03/15 01:51:54;;;;;;;28.20;15.20;;;;;;;2.68;45.92;102135.34;5046158;28;20036;-68
2022/03/15 01:54:22;;;;;;;34.45;16.45;;;;;;;2.70;46.14;102144.09;5049140;28;20415;-69
2022/03/15 01:56:48;;;;;;;32.90;17.70;;;;;;;2.70;46.23;102138.78;5048887;28;20025;-67
2022/03/15 01:59:16;;;;;;;39.80;17.90;;;;;;;2.72;45.93;102129.03;5049130;28;20534;-67
2022/03/15 02:01:42;;;;;;;29.23;16.25;;;;;;;2.70;46.11;102130.00;5049014;28;20033;-67
2022/03/15 02:04:09;;;;;;;32.25;15.70;;;;;;;2.61;46.17;102109.91;5049523;28;20040;-67
2022/03/15 02:06:36;;;;;;;33.08;15.73;;;;;;;2.71;46.50;102134.38;5048730;28;20055;-67
2022/03/15 02:09:09;;;;;;;34.53;17.17;;;;;;;2.73;46.29;102135.19;5049178;28;20091;-68
2022/03/15 02:11:35;;;;;;;31.67;16.33;;;;;;;2.74;46.81;102139.59;5048265;28;20175;-69
2022/03/15 02:14:02;;;;;;;30.60;15.82;;;;;;;2.68;46.77;102122.09;5048778;28;20733;-67
2022/03/15 02:16:27;;;;;;;35.25;17.10;;;;;;;2.66;46.48;102118.59;5048643;28;20025;-68
2022/03/15 02:18:53;;;;;;;31.40;17.42;;;;;;;2.74;46.72;102127.19;5048336;28;20430;-67
2022/03/15 02:21:18;;;;;;;32.05;16.55;;;;;;;2.72;46.87;102134.34;5048424;28;20040;-68
2022/03/15 02:23:44;;;;;;;34.83;17.67;;;;;;;2.63;47.11;102121.34;5046637;28;20049;-67
2022/03/15 02:26:09;;;;;;;33.97;17.38;;;;;;;2.70;47.25;102135.31;5048874;28;20099;-67
2022/03/15 02:28:35;;;;;;;35.45;17.90;;;;;;;2.67;47.29;102132.72;5047794;28;20033;-66
2022/03/15 02:31:00;;;;;;;32.63;17.02;;;;;;;2.67;46.90;102132.72;5048355;28;20036;-68
2022/03/15 02:33:25;;;;;;;32.83;16.75;;;;;;;2.65;47.30;102130.13;5048167;28;20036;-68
2022/03/15 02:35:51;;;;;;;31.95;17.52;;;;;;;2.59;47.90;102132.03;5047819;28;20365;-68
2022/03/15 02:38:17;;;;;;;32.95;18.02;;;;;;;2.51;47.44;102128.75;5048146;28;20061;-68
2022/03/15 02:40:42;;;;;;;45.97;22.85;;;;;;;2.36;47.85;102130.00;5047887;28;20024;-68
2022/03/15 02:43:08;;;;;;;46.30;21.73;;;;;;;2.32;47.37;102130.97;5048461;28;20068;-68
2022/03/15 02:45:34;;;;;;;41.03;22.23;;;;;;;2.27;47.22;102147.00;5047693;28;20028;-69
2022/03/15 02:47:59;;;;;;;47.65;23.48;;;;;;;2.22;47.23;102154.16;5046704;28;20144;-68
2022/03/15 02:50:25;;;;;;;48.63;22.75;;;;;;;2.10;47.69;102154.44;5047784;28;20024;-68
2022/03/15 02:52:50;;;;;;;47.95;23.75;;;;;;;2.04;47.85;102153.75;5047777;28;20059;-69
2022/03/15 02:55:18;;;;;;;48.58;25.00;;;;;;;1.92;47.87;102148.72;5046420;28;20037;-68
2022/03/15 02:57:44;;;;;;;44.80;23.30;;;;;;;1.83;48.25;102148.94;5047528;28;20051;-68
2022/03/15 03:00:10;;;;;;;45.17;22.83;;;;;;;1.74;48.35;102143.88;5048229;28;20044;-67
2022/03/15 03:02:36;;;;;;;42.55;21.63;;;;;;;1.67;48.82;102142.25;5045304;28;20041;-69
2022/03/15 03:05:02;;;;;;;45.47;22.08;;;;;;;1.57;49.13;102135.44;5047679;28;20115;-68
2022/03/15 03:07:27;;;;;;;47.22;22.90;;;;;;;1.57;49.61;102165.41;5047529;28;20029;-67
2022/03/15 03:09:53;;;;;;;41.28;21.85;;;;;;;1.48;49.88;102155.00;5047180;28;20508;-68
2022/03/15 03:12:18;;;;;;;43.50;21.88;;;;;;;1.46;50.24;102155.97;5047616;28;20025;-68
2022/03/15 03:14:47;;;;;;;38.72;19.73;;;;;;;1.39;50.53;102147.28;5047198;28;20483;-68
2022/03/15 03:17:13;;;;;;;45.80;21.67;;;;;;;1.41;50.48;102153.41;5047888;28;20021;-67
2022/03/15 03:19:39;;;;;;;42.60;21.15;;;;;;;1.41;50.87;102158.69;5045772;28;20035;-68
2022/03/15 03:22:06;;;;;;;39.00;20.30;;;;;;;1.37;50.78;102154.38;5047821;28;20025;-69
2022/03/15 03:24:32;;;;;;;43.53;21.77;;;;;;;1.32;50.69;102156.25;5045508;28;20060;-67
2022/03/15 03:26:58;;;;;;;38.33;21.58;;;;;;;1.25;50.93;102145.81;5047614;28;20019;-68
2022/03/15 03:29:25;;;;;;;49.63;23.10;;;;;;;1.23;50.96;102145.00;5047349;28;20029;-68
2022/03/15 03:31:51;;;;;;;43.30;21.75;;;;;;;1.20;50.99;102139.78;5046983;28;20102;-69
2022/03/15 03:34:16;;;;;;;38.60;20.67;;;;;;;1.17;51.24;102139.84;5047346;28;20033;-68
2022/03/15 03:36:41;;;;;;;36.05;20.25;;;;;;;1.15;51.86;102137.22;5047086;28;20029;-68
2022/03/15 03:39:07;;;;;;;36.67;19.13;;;;;;;1.12;52.14;102137.28;5047355;28;20056;-66
2022/03/15 03:41:33;;;;;;;37.10;19.00;;;;;;;1.18;52.11;102152.13;5045619;28;20228;-68
2022/03/15 03:43:58;;;;;;;34.40;18.58;;;;;;;1.15;51.91;102139.88;5047358;28;20108;-68
2022/03/15 03:46:24;;;;;;;42.70;19.95;;;;;;;1.29;52.10;102150.16;5047170;28;20029;-69
2022/03/15 03:48:50;;;;;;;35.20;18.38;;;;;;;1.32;52.23;102147.47;5046965;28;20083;-67
2022/03/15 03:51:19;;;;;;;36.45;18.25;;;;;;;1.41;52.26;102161.34;5047252;28;20477;-69
2022/03/15 03:53:45;;;;;;;34.15;18.35;;;;;;;1.38;52.08;102140.25;5046829;28;20033;-69
2022/03/15 03:56:11;;;;;;;33.13;19.25;;;;;;;1.46;52.07;102151.56;5047467;28;20089;-68
2022/03/15 03:58:37;;;;;;;42.22;18.17;;;;;;;1.49;51.81;102140.88;5045535;28;20076;-69
2022/03/15 04:01:03;;;;;;;32.97;17.73;;;;;;;1.57;51.42;102151.28;5047155;28;20029;-69
2022/03/15 04:03:30;;;;;;;31.17;17.58;;;;;;;1.55;51.48;102132.81;5047012;28;20041;-69
2022/03/15 04:05:56;;;;;;;32.22;16.73;;;;;;;1.66;50.96;102145.81;5046769;28;20029;-69
2022/03/15 04:08:22;;;;;;;33.70;17.48;;;;;;;1.73;50.81;102145.66;5046912;28;20059;-68
2022/03/15 04:10:49;;;;;;;39.13;17.55;;;;;;;1.76;50.79;102140.28;5046666;28;20082;-67
2022/03/15 04:13:16;;;;;;;37.15;17.77;;;;;;;1.78;50.63;102138.47;5047257;28;20035;-67
2022/03/15 04:15:41;;;;;;;40.47;19.30;;;;;;;1.81;50.62;102141.03;5049011;28;20048;-68
2022/03/15 04:18:07;;;;;;;35.58;18.05;;;;;;;1.78;50.82;102129.69;5049488;28;20029;-69
2022/03/15 04:20:33;;;;;;;37.40;18.55;;;;;;;1.87;50.46;102140.06;5050895;28;20067;-69
2022/03/15 04:22:58;;;;;;;36.53;18.83;;;;;;;1.90;50.13;102134.66;5050491;28;20095;-69
2022/03/15 04:25:25;;;;;;;36.22;18.52;;;;;;;1.90;50.23;102140.81;5049425;28;20045;-68
2022/03/15 04:27:54;;;;;;;37.67;19.52;;;;;;;1.78;50.01;102119.09;5050442;28;20543;-69
2022/03/15 04:30:20;;;;;;;37.20;17.98;;;;;;;1.84;49.96;102140.13;5050541;28;20025;-69
2022/03/15 04:32:45;;;;;;;37.42;20.10;;;;;;;1.87;50.23;102155.91;5049067;28;20041;-69
2022/03/15 04:35:11;;;;;;;34.90;20.33;;;;;;;1.85;50.34;102163.88;5050687;28;20477;-70
2022/03/15 04:37:37;;;;;;;38.05;20.75;;;;;;;1.73;49.87;102150.94;5050267;28;20723;-69
2022/03/15 04:40:03;;;;;;;36.42;20.52;;;;;;;1.70;49.98;102150.13;5050674;28;20028;-69
2022/03/15 04:42:29;;;;;;;42.47;21.50;;;;;;;1.64;50.03;102148.50;5050531;28;20052;-69
2022/03/15 04:44:54;;;;;;;41.88;21.92;;;;;;;1.56;50.14;102155.72;5050131;28;20090;-69
2022/03/15 04:47:20;;;;;;;39.72;21.92;;;;;;;1.48;50.38;102156.81;5050566;28;20480;-69
2022/03/15 04:49:45;;;;;;;42.88;20.75;;;;;;;1.33;50.73;102150.06;5050585;28;20029;-68
2022/03/15 04:52:11;;;;;;;43.42;21.20;;;;;;;1.28;51.07;102154.56;5050542;28;20035;-69
2022/03/15 04:54:36;;;;;;;34.58;19.98;;;;;;;1.24;51.21;102155.53;5050049;28;20020;-69
2022/03/15 04:57:02;;;;;;;43.20;21.25;;;;;;;1.19;51.42;102165.31;5050725;28;20033;-69
2022/03/15 04:59:27;;;;;;;36.85;18.70;;;;;;;1.13;51.83;102160.16;5050371;28;20025;-68
2022/03/15 05:01:53;;;;;;;45.20;19.88;;;;;;;1.09;52.09;102158.47;5050036;28;20044;-69
2022/03/15 05:04:18;;;;;;;36.03;19.65;;;;;;;1.06;52.23;102149.75;5049141;28;20120;-69
2022/03/15 05:06:44;;;;;;;39.10;19.42;;;;;;;1.02;52.75;102156.88;5050381;28;20056;-69
2022/03/15 05:09:09;;;;;;;40.30;19.13;;;;;;;1.12;52.76;102161.06;5048628;28;20029;-69
2022/03/15 05:11:34;;;;;;;34.63;18.65;;;;;;;1.18;53.04;102179.44;5049928;28;20032;-67
2022/03/15 05:14:00;;;;;;;39.33;19.33;;;;;;;1.16;52.82;102170.66;5050248;28;20037;-68
2022/03/15 05:16:25;;;;;;;41.28;20.27;;;;;;;1.20;52.76;102171.47;5050006;28;20033;-68
2022/03/15 05:18:53;;;;;;;45.25;21.15;;;;;;;1.13;52.15;102165.44;5049876;28;20052;-68
2022/03/15 05:21:23;;;;;;;38.88;20.55;;;;;;;1.14;52.12;102167.19;5050254;28;20435;-68
2022/03/15 05:23:49;;;;;;;48.35;21.02;;;;;;;1.17;52.01;102175.06;5049978;28;20045;-69
2022/03/15 05:26:15;;;;;;;49.22;23.10;;;;;;;1.18;52.10;102176.81;5049611;28;20037;-69
2022/03/15 05:28:42;;;;;;;43.38;22.40;;;;;;;1.09;52.18;102169.03;5049636;28;20087;-68
2022/03/15 05:31:08;;;;;;;41.72;22.50;;;;;;;1.10;52.36;102178.72;5049865;28;20020;-69
2022/03/15 05:33:34;;;;;;;49.83;23.65;;;;;;;1.09;52.28;102182.25;5049821;28;20060;-68
2022/03/15 05:36:00;;;;;;;51.40;24.20;;;;;;;1.09;52.54;102189.31;5048594;28;20037;-68
2022/03/15 05:38:26;;;;;;;48.35;23.33;;;;;;;1.00;52.49;102177.16;5049892;28;20384;-69
2022/03/15 05:40:52;;;;;;;42.08;23.15;;;;;;;1.04;52.75;102189.41;5049393;28;20116;-68
2022/03/15 05:43:19;;;;;;;44.38;23.10;;;;;;;0.99;52.99;102174.53;5049649;28;20053;-68
2022/03/15 05:45:45;;;;;;;48.08;22.45;;;;;;;0.96;53.09;102171.94;5047597;28;20037;-68
2022/03/15 05:48:11;;;;;;;45.65;22.48;;;;;;;1.10;53.47;102196.34;5048847;28;20528;-68
2022/03/15 05:50:36;;;;;;;44.70;21.55;;;;;;;1.14;53.27;102196.25;5049042;28;20067;-67
2022/03/15 05:53:05;;;;;;;35.90;19.73;;;;;;;1.21;53.47;102192.59;5049830;28;20111;-67
2022/03/15 05:55:34;;;;;;;41.55;20.10;;;;;;;1.31;53.66;102182.69;5049659;28;20044;-68
2022/03/15 05:58:01;;;;;;;36.88;19.45;;;;;;;1.36;53.33;102175.56;5049545;28;20496;-68
2022/03/15 06:00:27;;;;;;;39.65;18.92;;;;;;;1.49;53.42;102177.88;5049235;28;20049;-67
2022/03/15 06:02:53;;;;;;;40.03;20.17;;;;;;;1.63;53.32;102186.44;5048804;28;20831;-68
2022/03/15 06:05:19;;;;;;;37.20;20.38;;;;;;;1.67;52.79;102177.50;5049436;28;20381;-67
2022/03/15 06:07:46;;;;;;;36.05;19.13;;;;;;;1.81;52.83;102186.00;5048746;28;20044;-68
2022/03/15 06:10:12;;;;;;;37.20;18.20;;;;;;;1.91;52.21;102173.47;5049359;28;20431;-69
2022/03/15 06:12:38;;;;;;;35.92;19.20;;;;;;;2.03;52.14;102183.72;5055379;28;20025;-66
2022/03/15 06:15:04;;;;;;;38.30;20.15;;;;;;;2.12;52.12;102172.94;5058100;28;20074;-67
2022/03/15 06:17:31;;;;;;;35.50;20.02;;;;;;;2.23;51.63;102171.78;5057892;28;20126;-66
2022/03/15 06:19:58;;;;;;;35.83;18.15;;;;;;;2.33;51.38;102173.28;5056699;28;20028;-65
2022/03/15 06:22:23;;;;;;;32.92;18.38;;;;;;;2.47;50.99;102182.66;5056696;28;20123;-69
2022/03/15 06:24:49;;;;;;;42.60;20.83;;;;;;;2.56;50.74;102172.72;5052779;28;20080;-67
2022/03/15 06:27:14;;;;;;;34.53;18.70;;;;;;;2.78;50.02;102181.00;5050960;28;20384;-67
2022/03/15 06:29:40;;;;;;;33.95;20.25;;;;;;;2.92;49.67;102173.53;5049256;28;20056;-66
2022/03/15 06:32:07;;;;;;;36.42;19.75;;;;;;;3.13;49.31;102192.38;5047922;28;20043;-68
2022/03/15 06:34:33;;;;;;;35.55;19.45;;;;;;;3.28;49.10;102181.34;5049606;28;20086;-66
2022/03/15 06:36:59;;;;;;;31.65;18.42;;;;;;;3.42;48.61;102173.00;5047534;28;20080;-69
2022/03/15 06:39:24;;;;;;;34.25;18.27;;;;;;;3.52;48.77;102162.06;5047884;28;20103;-69
2022/03/15 06:41:50;;;;;;;36.10;18.95;;;;;;;3.71;48.34;102178.31;5047865;28;20040;-69
2022/03/15 06:44:16;;;;;;;32.15;18.55;;;;;;;3.87;47.96;102171.63;5047777;28;20083;-69
2022/03/15 06:46:42;;;;;;;34.85;17.75;;;;;;;4.04;47.74;102169.31;5045995;28;20048;-69
2022/03/15 06:49:08;;;;;;;36.20;19.35;;;;;;;4.24;47.20;102183.69;5048061;28;20420;-69
2022/03/15 06:51:33;;;;;;;33.42;19.90;;;;;;;4.42;46.79;102175.09;5047746;28;20016;-68
2022/03/15 06:53:59;;;;;;;36.70;19.70;;;;;;;4.59;46.41;102174.56;5048874;28;20153;-68
2022/03/15 06:56:24;;;;;;;33.38;19.20;;;;;;;4.80;45.99;102171.16;5050440;28;20107;-67
2022/03/15 06:58:50;;;;;;;34.90;17.95;;;;;;;5.02;45.79;102182.78;5050057;28;20477;-68
2022/03/15 07:01:16;;;;;;;37.05;18.83;;;;;;;5.27;45.25;102165.03;5050724;28;20516;-68
2022/03/15 07:03:41;;;;;;;32.30;19.48;;;;;;;5.46;44.60;102157.22;5050202;28;20455;-68
2022/03/15 07:06:07;;;;;;;33.55;19.20;;;;;;;5.72;43.97;102168.63;5046270;28;20021;-68
2022/03/15 07:08:32;;;;;;;34.92;18.83;;;;;;;5.97;43.29;102165.91;5042686;28;20484;-69
2022/03/15 07:10:58;;;;;;;35.42;18.63;;;;;;;6.23;43.03;102173.72;5040791;28;20044;-68
2022/03/15 07:13:23;;;;;;;32.00;18.95;;;;;;;6.49;42.91;102169.03;5042605;28;20033;-69
2022/03/15 07:15:49;;;;;;;36.15;19.40;;;;;;;6.79;42.50;102167.75;5033696;28;20108;-70
2022/03/15 07:18:20;;;;;;;33.95;19.38;;;;;;;7.06;41.74;102157.69;5030298;28;20029;-70
2022/03/15 07:20:46;;;;;;;30.95;17.67;;;;;;;7.33;41.03;102156.47;5046549;28;20494;-69
2022/03/15 07:23:11;;;;;;;36.28;19.40;;;;;;;7.61;40.40;102154.25;5047428;28;20061;-69
2022/03/15 07:25:37;;;;;;;32.42;18.65;;;;;;;7.90;40.13;102152.91;5044682;28;20029;-67
2022/03/15 07:28:02;;;;;;;36.17;18.75;;;;;;;8.16;39.80;102145.31;5045534;28;20025;-68
2022/03/15 07:30:28;;;;;;;31.08;17.65;;;;;;;8.47;38.99;102155.41;5047244;28;20043;-68
2022/03/15 07:32:53;;;;;;;32.22;17.98;;;;;;;8.79;38.64;102152.84;5047699;28;20045;-69
2022/03/15 07:35:20;;;;;;;28.60;17.92;;;;;;;9.11;37.87;102154.72;5048514;28;20108;-70
2022/03/15 07:37:50;;;;;;;27.20;16.85;;;;;;;9.50;36.61;102145.50;5047972;28;20032;-66
2022/03/15 07:40:16;;;;;;;25.98;17.08;;;;;;;9.81;36.44;102142.88;5046152;28;20020;-67
2022/03/15 07:42:41;;;;;;;28.23;17.45;;;;;;;10.09;35.74;102146.63;5046720;28;20515;-66
2022/03/15 07:45:07;;;;;;;31.73;17.98;;;;;;;10.53;34.83;102144.94;5047434;28;20036;-67
2022/03/15 07:47:32;;;;;;;28.73;19.33;;;;;;;10.85;34.65;102138.50;5047096;28;20029;-67
2022/03/15 07:49:58;;;;;;;30.63;18.20;;;;;;;11.32;33.96;102144.53;5050091;28;20021;-67
2022/03/15 07:52:23;;;;;;;31.75;18.98;;;;;;;11.85;33.27;102153.75;5051661;28;20419;-67
2022/03/15 07:54:49;;;;;;;25.40;17.95;;;;;;;12.48;32.46;102152.25;5050822;28;20056;-67
2022/03/15 07:57:14;;;;;;;25.83;17.70;;;;;;;13.70;30.34;102148.09;5051399;28;20032;-67
2022/03/15 07:59:40;;;;;;;28.48;17.98;;;;;;;14.74;28.85;102145.69;5050691;28;20083;-66
2022/03/15 08:02:06;;;;;;;27.05;17.45;;;;;;;15.75;27.68;102151.22;5049957;28;20032;-67
2022/03/15 08:04:32;;;;;;;25.27;17.85;;;;;;;16.80;26.19;102133.41;5051032;28;20040;-66
2022/03/15 08:06:57;;;;;;;25.33;17.40;;;;;;;17.93;25.07;102140.50;5051135;28;20385;-67
2022/03/15 08:09:22;;;;;;;29.35;16.85;;;;;;;18.83;23.84;102140.25;5051607;28;20051;-67
2022/03/15 08:11:48;;;;;;;22.63;16.65;;;;;;;19.72;22.88;102134.34;5051222;28;20175;-68
2022/03/15 08:14:13;;;;;;;24.15;16.92;;;;;;;20.28;22.24;102128.81;5049930;28;20029;-67
2022/03/15 08:16:39;;;;;;;39.70;25.13;;;;;;;21.01;21.59;102131.25;5051525;28;20028;-69
2022/03/15 08:19:05;;;;;;;23.45;16.67;;;;;;;21.44;21.23;102131.25;5051793;28;20031;-70
2022/03/15 08:21:31;;;;;;;19.92;15.00;;;;;;;21.89;20.57;102132.72;5049994;28;20075;-70
2022/03/15 08:23:57;;;;;;;20.63;14.15;;;;;;;22.34;20.14;102129.63;5051736;28;20053;-69
2022/03/15 08:26:23;;;;;;;18.85;14.10;;;;;;;22.62;19.69;102125.63;5052355;28;20111;-70
2022/03/15 08:28:49;;;;;;;16.85;13.45;;;;;;;22.81;19.57;102118.97;5052010;28;20108;-70
2022/03/15 08:31:15;;;;;;;20.63;13.13;;;;;;;23.23;19.10;102126.00;5052452;28;20032;-70
2022/03/15 08:33:41;;;;;;;17.48;13.18;;;;;;;23.64;18.82;102115.81;5051737;28;20036;-70
2022/03/15 08:36:07;;;;;;;17.58;11.90;;;;;;;23.94;18.55;102124.16;5052509;28;20033;-70
2022/03/15 08:38:33;;;;;;;14.98;12.35;;;;;;;24.00;18.43;102115.22;5051866;28;20107;-70
2022/03/15 08:40:58;;;;;;;14.48;11.48;;;;;;;24.04;18.17;102104.72;5052350;28;20112;-70
2022/03/15 08:43:24;;;;;;;18.42;12.02;;;;;;;24.06;18.13;102092.53;5052448;28;20025;-69
2022/03/15 08:45:51;;;;;;;14.23;11.52;;;;;;;23.80;18.37;102100.16;5051551;28;20485;-70
2022/03/15 08:48:17;;;;;;;15.65;12.20;;;;;;;24.06;18.15;102105.41;5051947;28;20412;-70
2022/03/15 08:50:43;;;;;;;15.00;11.80;;;;;;;24.37;18.14;102093.41;5051073;28;20040;-70
2022/03/15 08:53:08;;;;;;;12.23;10.45;;;;;;;24.73;17.50;102098.34;5051022;28;20037;-70
2022/03/15 08:55:35;;;;;;;15.80;12.43;;;;;;;25.04;17.53;102088.09;5050709;28;20491;-69
2022/03/15 08:58:02;;;;;;;18.77;13.50;;;;;;;25.27;17.23;102091.66;5050363;28;20154;-68
2022/03/15 09:00:27;;;;;;;14.65;10.32;;;;;;;25.50;16.88;102092.50;5050075;28;20029;-70
2022/03/15 09:02:53;;;;;;;15.73;10.93;;;;;;;25.77;16.55;102089.94;5048935;28;20028;-69
2022/03/15 09:05:19;;;;;;;13.30;10.55;;;;;;;26.00;16.46;102092.56;5050628;28;20552;-70
2022/03/15 09:07:51;;;;;;;12.35;9.77;;;;;;;26.38;16.01;102061.09;5050050;28;20075;-69
2022/03/15 09:10:21;;;;;;;13.00;9.85;;;;;;;26.50;16.17;102074.13;5050412;28;20032;-70
2022/03/15 09:12:49;;;;;;;12.07;9.57;;;;;;;26.51;15.93;102052.97;5050159;28;20036;-69
2022/03/15 09:15:14;;;;;;;12.85;10.38;;;;;;;26.79;15.98;102067.66;5050347;28;20400;-69
2022/03/15 09:17:40;;;;;;;15.68;11.32;;;;;;;27.01;15.90;102063.00;5051856;28;20017;-69
2022/03/15 09:20:08;;;;;;;11.98;9.85;;;;;;;27.10;15.88;102050.75;5052765;28;20025;-70
2022/03/15 09:22:34;;;;;;;11.95;9.85;;;;;;;27.04;15.81;102066.19;5052313;28;20112;-69
2022/03/15 09:24:59;;;;;;;11.93;9.02;;;;;;;27.15;15.61;102056.53;5052074;28;20151;-69
2022/03/15 09:27:25;;;;;;;10.20;7.63;;;;;;;27.23;15.02;102053.59;5050777;28;20097;-70
2022/03/15 09:29:50;;;;;;;10.00;7.18;;;;;;;27.47;14.96;102050.44;5050826;28;20484;-70
2022/03/15 09:32:16;;;;;;;7.88;5.85;;;;;;;27.52;15.09;102045.13;5049948;28;20054;-70
2022/03/15 09:34:42;;;;;;;7.35;5.97;;;;;;;27.51;14.73;102044.31;5049513;28;20029;-69
2022/03/15 09:37:07;;;;;;;9.93;5.88;;;;;;;27.72;14.69;102044.19;5049823;28;20037;-70
2022/03/15 09:39:33;;;;;;;7.75;6.28;;;;;;;27.84;14.50;102033.41;5049719;28;20075;-70
2022/03/15 09:41:59;;;;;;;10.75;6.35;;;;;;;27.69;14.83;102044.59;5049716;28;20461;-68
2022/03/15 09:44:27;;;;;;;7.35;6.60;;;;;;;27.52;14.73;102021.19;5049932;28;20025;-70
2022/03/15 09:46:55;;;;;;;8.98;6.30;;;;;;;27.75;14.68;102027.22;5049428;28;20027;-71
2022/03/15 09:49:22;;;;;;;7.00;6.10;;;;;;;27.69;14.70;102021.66;5049948;28;20384;-70
2022/03/15 09:51:48;;;;;;;8.15;6.95;;;;;;;27.49;14.93;102017.97;5049557;28;20025;-70
2022/03/15 09:54:14;;;;;;;7.88;6.47;;;;;;;27.34;15.01;102018.09;5049505;28;20083;-70
2022/03/15 09:56:41;;;;;;;7.70;6.82;;;;;;;27.57;14.69;102007.63;5048955;28;20032;-71
2022/03/15 09:59:16;;;;;;;9.30;6.63;;;;;;;27.47;14.54;102006.31;5049221;28;20021;-71
2022/03/15 10:01:50;;;;;;;7.43;6.18;;;;;;;27.52;14.75;102006.53;5048914;28;20372;-69
2022/03/15 10:04:16;;;;;;;8.57;6.20;;;;;;;27.60;14.68;102007.22;5049286;28;20029;-69
2022/03/15 10:06:41;;;;;;;9.02;6.68;;;;;;;27.45;14.77;101998.25;5048791;28;20041;-69
2022/03/15 10:09:08;;;;;;;9.10;6.60;;;;;;;27.49;14.47;101999.53;5049482;28;20147;-69
2022/03/15 10:11:35;;;;;;;6.95;6.25;;;;;;;27.31;14.88;101985.44;5048621;28;20472;-67
2022/03/15 10:14:01;;;;;;;7.60;6.28;;;;;;;27.29;14.73;101972.91;5048240;28;20025;-71
2022/03/15 10:16:32;;;;;;;7.20;6.18;;;;;;;27.25;14.74;101974.38;5048876;28;20114;-70
2022/03/15 10:18:58;;;;;;;7.93;6.53;;;;;;;27.14;15.10;101972.19;5049125;28;20033;-70
2022/03/15 10:21:44;;;;;;;9.02;6.47;;;;;;;26.76;14.86;101971.66;5049075;28;20511;-71
2022/03/15 10:24:10;;;;;;;11.57;6.82;;;;;;;26.20;15.34;101975.38;5049119;28;20080;-70
2022/03/15 10:26:47;;;;;;;8.63;6.65;;;;;;;25.32;15.73;101968.34;5048949;28;20025;-69
2022/03/15 10:29:14;;;;;;;11.02;6.93;;;;;;;24.53;16.45;101970.88;5049417;28;20029;-70
2022/03/15 10:31:41;;;;;;;10.60;7.60;;;;;;;23.93;17.29;101960.63;5048571;28;20028;-71
2022/03/15 10:34:08;;;;;;;8.05;7.07;;;;;;;23.39;16.98;101967.13;5048923;28;20037;-70
2022/03/15 10:36:43;;;;;;;8.52;6.88;;;;;;;22.62;17.83;101952.41;5048640;28;21213;-69
2022/03/15 10:39:11;;;;;;;8.70;7.50;;;;;;;21.95;18.57;101948.09;5048618;28;20473;-70
2022/03/15 10:41:48;;;;;;;10.32;7.50;;;;;;;21.41;18.97;101954.94;5048327;28;20552;-70
2022/03/15 10:44:25;;;;;;;9.57;7.50;;;;;;;20.94;19.41;101947.38;5048638;28;20020;-71
2022/03/15 10:47:06;;;;;;;14.02;7.93;;;;;;;20.49;19.87;101942.09;5048057;28;20492;-71
2022/03/15 10:49:54;;;;;;;10.13;8.30;;;;;;;20.18;19.83;101938.09;5048583;28;20035;-70
2022/03/15 10:52:32;;;;;;;14.13;8.02;;;;;;;19.75;20.52;101933.41;5048430;28;20021;-72
2022/03/15 10:55:22;;;;;;;11.18;8.10;;;;;;;19.56;20.40;101930.81;5048405;28;20036;-69
2022/03/15 10:58:00;;;;;;;10.07;8.10;;;;;;;19.29;20.80;101928.13;5047742;28;20021;-70
2022/03/15 11:00:31;;;;;;;9.27;7.88;;;;;;;19.03;21.71;101929.81;5048201;28;20361;-69
2022/03/15 11:02:58;;;;;;;9.52;7.65;;;;;;;18.90;21.41;101929.28;5048401;28;20024;-70
2022/03/15 11:05:31;;;;;;;10.23;7.40;;;;;;;18.69;21.71;101911.47;5049053;28;20036;-71
2022/03/15 11:07:57;;;;;;;11.10;7.53;;;;;;;18.61;21.67;101911.34;5049444;28;20117;-71
2022/03/15 11:10:23;;;;;;;10.82;7.20;;;;;;;18.53;21.59;101908.50;5049908;28;20096;-71
2022/03/15 11:13:00;;;;;;;12.95;8.90;;;;;;;18.46;21.99;101910.09;5047554;28;20024;-70